Brownfield, ME

2:40 AM EDT on May 30, 2015 (GMT -0400)
Portland International | | Change Station
CLOSE
Current Station
Airport
Location: Portland,
Elevation: 62 ft
Nearby Weather Stations

Elev 62 ft 43.64 °N, 70.30 °W | Updated 49 minutes ago

Clear
Clear
59 °F
Feels Like 59 °F
N
0
Wind Variable Wind from North

Today
High -- | Low -- °F
--% Chance of Precip.
Yesterday
High -- | Low -- °F
Precip. -- in
5:05 AM 8:17 PM
Waxing Gibbous, 88% visible
Pressure 30.22 in
Visibility 0.5 miles
Clouds Overcast 200 ft
Dew Point 58 °F
Humidity 96%
Rainfall 0.00 in
Snow Depth Not available.
UV 0 out of 12
Pollen 9.00 out of 12
Air Quality Not available.
Flu Activity Regional
METAR KPWM 300551Z 00000KT 1/2SM FG OVC002 15/14 A3021 RMK AO2 SLP231 T01500144 10161 20150 58012

More Conditions Fewer Conditions

Pressure 30.22 in
Visibility 0.5 miles
Clouds Overcast 200 ft
Dew Point 58 °F
Humidity 96%
Rainfall 0.00 in
Snow Depth Not available.
UV 0 out of 12
Pollen 9.00 out of 12
Air Quality Not available.
Flu Activity Regional
METAR KPWM 300551Z 00000KT 1/2SM FG OVC002 15/14 A3021 RMK AO2 SLP231 T01500144 10161 20150 58012

More Conditions Fewer Conditions

10-Day Weather Forecast

Almanac

Astronomy

May. 30, 2015 Rise Set
Actual Time
Civil Twilight
Nautical Twilight
Astronomical Twilight
Moon
Length of Visible Light
Length of Day
Tomorrow will be .
, % of the Moon is Illuminated

Today's Extremes

State Highs State Lows

Community

WunderPhotos

Upload Photos

1,825,472 photos uploaded!

WunderBlogs® & News

Nearby

Air Quality

  Air Quality AQ Index Pollutant
Not available.

Snow Depth

Station Depth Elevation

Earthquake Activity

City Distance Mag. Time & Date
Minimum magnitude displayed is 2.5.

Coastal Water Temperatures

Place Temperature

Stations

Nearby Weather Stations

Station Location Temp. Windchill Dew Point Humidity Wind Precip. Elev Updated Type